Time;durP1;ratioP1;P1;durP2;ratioP2;P2;SDS_P1;SDS_P2;PMS_P1;PMS_P2;Temp;Humidity;BMP_temperature;BMP_pressure;BME280_temperature;BME280_humidity;BME280_pressure;Samples;Min_cycle;Max_cycle;Signal;HPM_P1;HPM_P2
2023/03/29 00:02:02;;;;;;;3.38;1.88;;;;;;;6.84;81.64;100359.56;5052509;28;20120;-84
2023/03/29 00:04:30;;;;;;;4.20;2.22;;;;;;;6.84;81.95;100349.00;5020618;28;20782;-83
2023/03/29 00:07:03;;;;;;;4.18;2.08;;;;;;;6.86;81.50;100348.91;5009557;28;20053;-84
2023/03/29 00:09:31;;;;;;;;;;;;;;;6.79;84.32;100347.63;5051920;28;20049;-85
2023/03/29 00:11:59;;;;;;;5.47;2.15;;;;;;;6.87;80.86;100351.47;4987155;28;20451;-84
2023/03/29 00:14:27;;;;;;;2.35;1.85;;;;;;;6.82;81.98;100350.91;4998509;28;20057;-84
2023/03/29 00:16:54;;;;;;;5.70;2.08;;;;;;;6.85;81.62;100352.50;5022264;28;20049;-84
2023/03/29 00:19:21;;;;;;;3.78;1.95;;;;;;;6.85;81.81;100336.69;5003454;28;20531;-84
2023/03/29 00:21:47;;;;;;;5.57;2.90;;;;;;;6.85;81.56;100334.03;5021930;28;20119;-84
2023/03/29 00:24:14;;;;;;;4.28;2.40;;;;;;;6.90;79.55;100330.16;5019455;28;20541;-84
2023/03/29 00:26:41;;;;;;;5.50;2.50;;;;;;;6.86;80.90;100322.50;5008464;28;20053;-85
2023/03/29 00:29:08;;;;;;;4.10;2.55;;;;;;;6.85;81.66;100321.69;4997218;28;20056;-83
2023/03/29 00:31:34;;;;;;;6.13;2.60;;;;;;;6.84;81.99;100324.41;4985654;28;20055;-84
2023/03/29 00:34:02;;;;;;;5.60;2.83;;;;;;;6.79;82.92;100319.41;5000987;28;20046;-84
2023/03/29 00:36:28;;;;;;;4.30;3.20;;;;;;;6.82;82.78;100316.59;4993434;28;20524;-84
2023/03/29 00:38:55;;;;;;;4.90;2.78;;;;;;;6.84;82.55;100309.41;5006725;28;20054;-83
2023/03/29 00:41:23;;;;;;;6.45;2.50;;;;;;;6.83;82.72;100307.72;5003113;28;20563;-84
2023/03/29 00:44:01;;;;;;;4.80;2.35;;;;;;;6.72;85.34;100308.44;5002058;28;20053;-84
2023/03/29 00:46:29;;;;;;;4.22;2.15;;;;;;;6.78;83.67;100303.69;5001741;28;20057;-84
2023/03/29 00:49:03;;;;;;;16.50;3.20;;;;;;;6.76;84.96;100305.59;4991703;28;20137;-84
2023/03/29 00:51:33;;;;;;;7.15;2.63;;;;;;;6.76;83.93;100297.66;5009214;28;20084;-85
2023/03/29 00:54:01;;;;;;;5.68;2.97;;;;;;;6.82;82.70;100297.25;5003044;28;20073;-85
2023/03/29 00:56:36;;;;;;;4.53;2.53;;;;;;;6.82;82.83;100305.16;5004805;28;20049;-84
2023/03/29 00:59:06;;;;;;;5.97;3.38;;;;;;;6.80;82.74;100304.44;5055369;28;20806;-85
2023/03/29 01:01:44;;;;;;;6.97;2.80;;;;;;;6.79;83.28;100302.75;4981657;28;20049;-84
2023/03/29 01:04:17;;;;;;;6.20;3.05;;;;;;;6.79;83.98;100305.38;5020257;28;20583;-85
2023/03/29 01:06:57;;;;;;;6.50;2.97;;;;;;;6.77;84.67;100305.50;5007068;28;20709;-85
2023/03/29 01:09:25;;;;;;;8.05;3.38;;;;;;;6.74;84.97;100293.34;4990062;28;20045;-84
2023/03/29 01:11:55;;;;;;;7.75;2.92;;;;;;;6.77;84.30;100292.31;5004208;28;20194;-84
2023/03/29 01:14:57;;;;;;;9.10;3.45;;;;;;;6.74;86.07;100279.28;5025660;28;20058;-85
2023/03/29 01:17:24;;;;;;;6.38;2.90;;;;;;;6.77;84.76;100271.19;4927413;28;20429;-85
2023/03/29 01:19:56;;;;;;;5.28;2.72;;;;;;;6.79;84.79;100271.91;4987802;28;20042;-84
2023/03/29 01:22:44;;;;;;;8.05;2.92;;;;;;;6.73;86.12;100269.69;5022039;28;20568;-85
2023/03/29 01:25:40;;;;;;;7.22;3.00;;;;;;;6.71;86.17;100263.66;4998077;28;20046;-85
2023/03/29 01:28:09;;;;;;;4.47;3.08;;;;;;;6.71;84.97;100256.56;5004012;28;20424;-85
2023/03/29 01:30:41;;;;;;;4.18;2.50;;;;;;;6.74;84.54;100251.13;4989119;28;20050;-85
2023/03/29 01:33:20;;;;;;;4.88;2.80;;;;;;;6.71;84.54;100245.19;4972050;28;20053;-85
2023/03/29 01:35:52;;;;;;;6.88;3.30;;;;;;;6.78;82.77;100243.00;5005541;28;20041;-84
2023/03/29 01:38:29;;;;;;;5.75;2.67;;;;;;;6.76;82.63;100237.81;4992132;28;20052;-84
2023/03/29 01:40:56;;;;;;;6.45;3.33;;;;;;;6.78;81.69;100230.63;5000642;28;20065;-85
2023/03/29 01:43:25;;;;;;;4.18;2.67;;;;;;;6.80;81.48;100231.38;5005901;28;20148;-84
2023/03/29 01:45:58;;;;;;;3.95;2.38;;;;;;;6.79;81.23;100234.94;5006363;28;20100;-85
2023/03/29 01:48:28;;;;;;;7.30;2.90;;;;;;;6.74;82.33;100231.78;4985438;28;20041;-84
2023/03/29 01:51:10;;;;;;;6.57;2.80;;;;;;;6.73;82.73;100225.66;5013376;28;20511;-85
2023/03/29 01:53:38;;;;;;;6.47;2.67;;;;;;;6.75;82.36;100233.47;5007854;28;20038;-85
2023/03/29 01:56:11;;;;;;;6.90;2.80;;;;;;;6.69;84.14;100223.31;5003217;28;20042;-85
2023/03/29 01:58:42;;;;;;;6.65;4.15;;;;;;;6.71;83.65;100227.53;4991753;28;20770;-85
2023/03/29 02:01:09;;;;;;;4.57;2.90;;;;;;;6.72;83.96;100238.97;5023540;28;20578;-85
2023/03/29 02:03:41;;;;;;;9.10;2.70;;;;;;;6.71;84.38;100237.25;5022473;28;20045;-84
2023/03/29 02:06:12;;;;;;;4.35;2.38;;;;;;;6.69;84.61;100233.88;5011469;28;20156;-85
2023/03/29 02:08:40;;;;;;;4.00;2.45;;;;;;;6.68;84.37;100227.75;5038461;28;20455;-85
2023/03/29 02:11:07;;;;;;;5.57;3.25;;;;;;;6.67;84.69;100231.34;4993086;28;20120;-83
2023/03/29 02:13:34;;;;;;;7.65;3.25;;;;;;;6.74;84.12;100231.78;5002279;28;20125;-84
2023/03/29 02:16:10;;;;;;;7.03;3.22;;;;;;;6.68;84.97;100224.28;5040322;28;20502;-85
2023/03/29 02:18:39;;;;;;;5.75;3.88;;;;;;;6.71;84.04;100221.44;5010921;28;20046;-84
2023/03/29 02:21:15;;;;;;;8.20;3.10;;;;;;;6.71;83.99;100222.25;5016218;28;20133;-85
2023/03/29 02:23:45;;;;;;;7.85;3.70;;;;;;;6.68;84.77;100211.06;5021829;28;20544;-86
2023/03/29 02:26:13;;;;;;;7.90;5.30;;;;;;;6.72;83.72;100213.41;5040429;28;20045;-85
2023/03/29 02:28:41;;;;;;;11.40;4.25;;;;;;;6.74;83.55;100216.81;5006483;28;20060;-85
2023/03/29 02:31:20;;;;;;;10.77;4.55;;;;;;;6.68;84.81;100206.63;4998864;28;20168;-86
2023/03/29 02:34:31;;;;;;;8.60;4.53;;;;;;;6.68;85.17;100201.38;5001665;28;20045;-85
2023/03/29 02:37:09;;;;;;;11.68;4.13;;;;;;;6.68;84.94;100196.09;4910461;28;20366;-85
2023/03/29 02:39:37;;;;;;;13.68;5.15;;;;;;;6.72;83.82;100196.75;4960078;28;20138;-85
2023/03/29 02:42:05;;;;;;;12.15;4.78;;;;;;;6.72;84.12;100196.75;5030017;28;20052;-85
2023/03/29 02:44:35;;;;;;;11.95;4.90;;;;;;;6.69;84.04;100191.66;4975714;28;20062;-84
2023/03/29 02:47:06;;;;;;;15.38;5.28;;;;;;;6.66;84.68;100189.22;4968888;28;20043;-83
2023/03/29 02:49:33;;;;;;;10.52;5.15;;;;;;;6.68;84.30;100187.31;5026315;28;20054;-84
2023/03/29 02:52:09;;;;;;;9.32;4.32;;;;;;;6.61;85.15;100181.59;4993048;28;20042;-84
2023/03/29 02:54:41;;;;;;;9.70;4.10;;;;;;;6.62;84.21;100182.47;4969605;28;20052;-84
2023/03/29 02:57:09;;;;;;;9.87;4.97;;;;;;;6.66;84.22;100176.03;5003455;28;20115;-84
2023/03/29 02:59:37;;;;;;;8.13;4.32;;;;;;;6.69;83.72;100175.81;5007202;28;20083;-84
2023/03/29 03:02:04;;;;;;;10.38;4.50;;;;;;;6.70;83.82;100170.44;5009877;28;20176;-84
2023/03/29 03:04:33;;;;;;;11.43;4.43;;;;;;;6.69;83.81;100163.50;5007798;28;20119;-84
2023/03/29 03:07:01;;;;;;;9.13;4.18;;;;;;;6.70;83.72;100157.25;4966675;28;20042;-84
2023/03/29 03:09:28;;;;;;;10.15;4.68;;;;;;;6.69;84.03;100155.56;4991544;28;20042;-85
2023/03/29 03:11:55;;;;;;;8.65;4.13;;;;;;;6.67;84.23;100148.72;5001815;28;20052;-84
2023/03/29 03:14:24;;;;;;;14.00;4.93;;;;;;;6.63;84.74;100140.13;4987734;28;20048;-84
2023/03/29 03:16:51;;;;;;;14.43;4.47;;;;;;;6.63;84.63;100144.56;5007084;28;20056;-85
2023/03/29 03:19:18;;;;;;;14.25;3.90;;;;;;;6.64;84.51;100143.63;4979953;28;20517;-85
2023/03/29 03:21:45;;;;;;;11.13;3.80;;;;;;;6.63;84.14;100137.50;4999746;28;20378;-84
2023/03/29 03:24:14;;;;;;;8.95;4.55;;;;;;;6.60;83.86;100145.63;4985374;28;20045;-85
2023/03/29 03:26:41;;;;;;;9.32;4.53;;;;;;;6.59;83.79;100151.00;5012821;28;20038;-84
2023/03/29 03:29:08;;;;;;;9.88;3.90;;;;;;;6.56;83.55;100146.75;4987845;28;20054;-84
2023/03/29 03:32:00;;;;;;;8.20;4.03;;;;;;;6.55;82.93;100145.09;5007078;28;20078;-85
2023/03/29 03:34:54;;;;;;;11.40;5.32;;;;;;;6.56;82.64;100144.13;4992911;28;20401;-85
2023/03/29 03:37:23;;;;;;;18.55;5.05;;;;;;;6.58;82.52;100142.22;4990548;28;20508;-85
2023/03/29 03:39:50;;;;;;;8.25;4.57;;;;;;;6.57;82.21;100150.28;5011224;28;20493;-85
2023/03/29 03:42:17;;;;;;;8.18;4.30;;;;;;;6.58;83.02;100149.31;4983222;28;20099;-84
2023/03/29 03:44:45;;;;;;;14.20;4.38;;;;;;;6.55;83.26;100142.44;4980766;28;20074;-85
2023/03/29 03:47:38;;;;;;;11.00;4.50;;;;;;;6.55;83.58;100139.81;4952508;28;22236;-86
2023/03/29 03:50:40;;;;;;;9.70;4.47;;;;;;;6.57;83.58;100134.44;4959086;28;20088;-86
2023/03/29 03:53:08;;;;;;;14.38;4.75;;;;;;;6.57;83.17;100134.44;5023952;28;20041;-86
2023/03/29 03:55:54;;;;;;;9.25;4.43;;;;;;;6.51;83.79;100136.53;4994285;28;20034;-86
2023/03/29 03:58:25;;;;;;;7.93;4.25;;;;;;;6.50;84.08;100126.06;5034042;28;20056;-86
2023/03/29 04:00:53;;;;;;;13.35;4.93;;;;;;;6.50;83.63;100126.91;5021770;28;20049;-86
2023/03/29 04:03:34;;;;;;;12.30;5.78;;;;;;;6.51;82.96;100131.25;5034665;28;20076;-85
2023/03/29 04:06:03;;;;;;;9.15;4.43;;;;;;;6.47;83.47;100135.03;5021496;28;20450;-86
2023/03/29 04:08:47;;;;;;;10.18;5.00;;;;;;;6.52;83.24;100127.66;4998246;28;20139;-85
2023/03/29 04:11:36;;;;;;;14.65;5.40;;;;;;;6.51;83.38;100133.03;5037068;28;20045;-86
2023/03/29 04:14:04;;;;;;;9.50;4.63;;;;;;;6.52;83.53;100138.22;5006559;28;20046;-85
2023/03/29 04:16:51;;;;;;;13.48;5.22;;;;;;;6.50;83.64;100139.28;5018350;28;20045;-86
2023/03/29 04:19:38;;;;;;;11.10;4.82;;;;;;;6.49;84.10;100148.16;4965894;28;20562;-85
2023/03/29 04:22:05;;;;;;;13.82;5.53;;;;;;;6.49;83.91;100140.22;4987161;28;20092;-85
2023/03/29 04:24:33;;;;;;;12.75;4.68;;;;;;;6.51;83.27;100151.50;5020924;28;20582;-86
2023/03/29 04:27:23;;;;;;;11.57;5.18;;;;;;;6.50;83.89;100152.47;4981939;28;20444;-83
2023/03/29 04:29:50;;;;;;;13.70;5.43;;;;;;;6.49;84.00;100163.97;5011555;28;20061;-86
2023/03/29 04:32:29;;;;;;;9.77;4.35;;;;;;;6.48;84.38;100159.63;5049264;28;20049;-86
2023/03/29 04:35:03;;;;;;;9.52;4.40;;;;;;;6.44;84.74;100150.25;5025306;28;20385;-86
2023/03/29 04:37:31;;;;;;;8.88;4.05;;;;;;;6.44;85.09;100150.25;4985592;28;20054;-85
2023/03/29 04:40:03;;;;;;;8.55;4.88;;;;;;;6.47;85.20;100152.66;4964967;28;20065;-82
2023/03/29 04:42:46;;;;;;;11.05;4.97;;;;;;;6.45;85.40;100147.47;5035461;28;20050;-82
2023/03/29 04:45:13;;;;;;;12.93;5.40;;;;;;;6.43;85.43;100154.66;5036720;28;20091;-83
2023/03/29 04:48:00;;;;;;;9.63;5.13;;;;;;;6.45;85.15;100151.91;4990202;28;20496;-83
2023/03/29 04:50:28;;;;;;;10.30;4.90;;;;;;;6.39;85.67;100152.34;5018526;28;20046;-82
2023/03/29 04:52:55;;;;;;;9.25;4.38;;;;;;;6.35;85.93;100151.69;5002733;28;20103;-83
2023/03/29 04:55:23;;;;;;;9.82;4.53;;;;;;;6.36;86.08;100149.88;4995129;28;20050;-83
2023/03/29 04:58:11;;;;;;;10.98;4.50;;;;;;;6.40;85.11;100146.94;4986603;28;20560;-82
2023/03/29 05:00:41;;;;;;;13.88;4.20;;;;;;;6.43;84.76;100143.25;5017784;28;20042;-82
2023/03/29 05:03:12;;;;;;;8.82;4.00;;;;;;;6.47;83.93;100142.97;5017559;28;20060;-82
2023/03/29 05:06:07;;;;;;;12.48;5.07;;;;;;;6.40;84.35;100143.47;5009732;28;20053;-83
2023/03/29 05:08:38;;;;;;;13.43;5.68;;;;;;;6.46;83.97;100140.41;4994063;28;20050;-83
2023/03/29 05:11:23;;;;;;;9.57;4.07;;;;;;;6.47;84.13;100145.59;4989679;28;20152;-82
2023/03/29 05:13:50;;;;;;;11.70;5.40;;;;;;;6.49;83.88;100145.50;5012022;28;20099;-82
2023/03/29 05:16:17;;;;;;;11.15;4.35;;;;;;;6.45;84.93;100138.72;4995457;28;20080;-82
2023/03/29 05:18:44;;;;;;;10.80;4.55;;;;;;;6.45;84.75;100141.38;5015474;28;20559;-83
2023/03/29 05:21:11;;;;;;;13.60;5.07;;;;;;;6.45;85.17;100141.38;5020533;28;20068;-82
2023/03/29 05:23:41;;;;;;;9.05;4.65;;;;;;;6.52;84.77;100147.94;5003523;28;20058;-83
2023/03/29 05:26:14;;;;;;;15.73;5.18;;;;;;;6.52;84.61;100143.50;5021712;28;20049;-82
2023/03/29 05:28:45;;;;;;;14.20;5.63;;;;;;;6.55;84.55;100138.97;5016376;28;20374;-82
2023/03/29 05:31:12;;;;;;;6.57;4.43;;;;;;;6.52;84.83;100134.75;5021992;28;20069;-82
2023/03/29 05:33:43;;;;;;;10.60;5.68;;;;;;;6.55;85.04;100145.09;5000490;28;20079;-82
2023/03/29 05:36:12;;;;;;;15.40;5.15;;;;;;;6.46;86.34;100136.00;5019076;28;20061;-82
2023/03/29 05:38:45;;;;;;;11.60;4.85;;;;;;;6.55;85.52;100141.59;5035207;28;20053;-82
2023/03/29 05:41:14;;;;;;;12.15;6.40;;;;;;;6.49;86.22;100133.16;5004445;28;20045;-82
2023/03/29 05:43:44;;;;;;;12.30;5.78;;;;;;;6.52;86.03;100126.81;5022476;28;20044;-82
2023/03/29 05:46:12;;;;;;;15.30;5.82;;;;;;;6.56;85.84;100130.09;5009055;28;20041;-82
2023/03/29 05:48:46;;;;;;;10.10;5.10;;;;;;;6.52;86.24;100132.09;5010475;28;20433;-82
2023/03/29 05:51:13;;;;;;;9.98;6.75;;;;;;;6.58;85.96;100134.31;5006488;28;20046;-82
2023/03/29 05:53:40;;;;;;;16.42;7.93;;;;;;;6.63;85.45;100137.50;4994124;28;20053;-83
2023/03/29 05:56:09;;;;;;;10.75;6.22;;;;;;;6.62;85.64;100143.72;5018678;28;20192;-82
2023/03/29 05:58:38;;;;;;;10.27;5.57;;;;;;;6.68;84.96;100145.09;4979588;28;20104;-82
2023/03/29 06:01:10;;;;;;;11.00;5.40;;;;;;;6.62;85.48;100141.09;5020766;28;20397;-82
2023/03/29 06:03:56;;;;;;;13.55;5.38;;;;;;;6.68;84.80;100140.66;4991645;28;20053;-82
2023/03/29 06:06:28;;;;;;;12.70;4.97;;;;;;;6.70;84.18;100143.22;5021279;28;20053;-82
2023/03/29 06:08:57;;;;;;;17.27;6.07;;;;;;;6.74;83.76;100148.19;5003180;28;20108;-82
2023/03/29 06:11:38;;;;;;;16.55;6.40;;;;;;;6.77;84.34;100144.50;4980849;28;20112;-82
2023/03/29 06:14:26;;;;;;;11.20;5.60;;;;;;;6.75;84.21;100143.75;4999153;28;20046;-82
2023/03/29 06:17:03;;;;;;;16.38;5.75;;;;;;;6.77;83.80;100141.00;5004427;28;20473;-82
2023/03/29 06:19:30;;;;;;;11.32;5.90;;;;;;;6.74;84.21;100150.81;5004718;28;20108;-82
2023/03/29 06:21:57;;;;;;;13.02;6.88;;;;;;;6.78;84.57;100150.63;5017240;28;20069;-82
2023/03/29 06:24:27;;;;;;;14.20;6.07;;;;;;;6.82;85.05;100146.81;4986729;28;20046;-82
2023/03/29 06:27:02;;;;;;;11.00;5.82;;;;;;;6.91;84.34;100143.53;5034917;28;20057;-81
2023/03/29 06:29:30;;;;;;;13.38;6.88;;;;;;;6.88;84.43;100138.47;5012476;28;20052;-82
2023/03/29 06:31:57;;;;;;;10.93;6.75;;;;;;;6.95;84.11;100150.31;5003430;28;20041;-82
2023/03/29 06:34:53;;;;;;;13.90;6.55;;;;;;;6.93;84.18;100153.06;4929827;28;20057;-82
2023/03/29 06:37:32;;;;;;;17.00;6.22;;;;;;;6.94;84.31;100156.53;4998623;28;20058;-82
2023/03/29 06:40:19;;;;;;;11.38;5.88;;;;;;;6.94;84.08;100153.88;5015242;28;20042;-82
2023/03/29 06:42:47;;;;;;;11.93;6.90;;;;;;;6.99;83.73;100153.59;4998153;28;20049;-82
2023/03/29 06:45:35;;;;;;;15.32;6.43;;;;;;;7.01;83.33;100149.88;5007151;28;20374;-82
2023/03/29 06:48:11;;;;;;;13.05;6.57;;;;;;;7.07;83.23;100151.25;4997213;28;20470;-83
2023/03/29 06:50:46;;;;;;;17.27;6.88;;;;;;;7.10;83.64;100154.56;4997613;28;20115;-83
2023/03/29 06:53:14;;;;;;;12.45;6.88;;;;;;;7.14;83.70;100161.28;4968988;28;20544;-82
2023/03/29 06:55:44;;;;;;;12.20;7.13;;;;;;;7.21;83.45;100158.25;5017625;28;20051;-82
2023/03/29 06:58:25;;;;;;;15.05;7.22;;;;;;;7.21;83.81;100161.72;4975658;28;20051;-82
2023/03/29 07:00:52;;;;;;;14.27;6.95;;;;;;;7.19;83.80;100163.63;4995973;28;20124;-82
2023/03/29 07:03:28;;;;;;;17.63;7.10;;;;;;;7.21;83.49;100167.00;4974874;28;20049;-82
2023/03/29 07:06:02;;;;;;;15.40;6.78;;;;;;;7.21;83.88;100160.88;4976344;28;20513;-82
2023/03/29 07:08:31;;;;;;;13.88;7.28;;;;;;;7.22;84.18;100165.19;4994349;28;20131;-83
2023/03/29 07:11:02;;;;;;;12.93;6.20;;;;;;;7.28;83.00;100168.28;5006681;28;20064;-83
2023/03/29 07:13:49;;;;;;;16.35;7.25;;;;;;;7.31;83.03;100173.34;4988494;28;20136;-82
2023/03/29 07:16:21;;;;;;;15.52;7.25;;;;;;;7.32;83.05;100167.09;4993002;28;20073;-82
2023/03/29 07:18:53;;;;;;;13.65;6.70;;;;;;;7.33;83.04;100166.16;4978590;28;20081;-83
2023/03/29 07:21:46;;;;;;;16.48;6.15;;;;;;;7.33;82.40;100163.50;5001487;28;20460;-83
2023/03/29 07:24:13;;;;;;;15.80;7.57;;;;;;;7.35;82.40;100168.69;5025320;28;20079;-83
2023/03/29 07:26:40;;;;;;;19.70;6.72;;;;;;;7.38;82.25;100173.78;4997309;28;20056;-83
2023/03/29 07:29:22;;;;;;;15.13;6.95;;;;;;;7.45;81.97;100179.44;4965582;28;20054;-83
2023/03/29 07:31:49;;;;;;;12.57;7.70;;;;;;;7.48;81.83;100185.38;4994067;28;20458;-83
2023/03/29 07:34:51;;;;;;;18.95;7.50;;;;;;;7.49;81.63;100183.59;4998686;28;20197;-83
2023/03/29 07:37:33;;;;;;;20.00;8.32;;;;;;;7.52;81.42;100183.34;4975263;28;20064;-83
2023/03/29 07:40:02;;;;;;;18.13;8.50;;;;;;;7.55;81.59;100194.53;5009135;28;20065;-83
2023/03/29 07:42:41;;;;;;;21.70;8.98;;;;;;;7.55;81.25;100183.13;5006332;28;20095;-83
2023/03/29 07:45:12;;;;;;;19.13;8.80;;;;;;;7.57;80.91;100189.16;4973063;28;20042;-83
2023/03/29 07:47:54;;;;;;;21.88;9.55;;;;;;;7.60;80.80;100191.59;5051521;28;20449;-84
2023/03/29 07:50:22;;;;;;;16.10;7.78;;;;;;;7.62;80.59;100189.69;4993810;28;20080;-81
2023/03/29 07:52:52;;;;;;;17.63;8.77;;;;;;;7.63;80.74;100183.44;5004379;28;20042;-83
2023/03/29 07:55:19;;;;;;;25.15;9.70;;;;;;;7.66;80.91;100188.53;4992136;28;20621;-82
2023/03/29 07:57:56;;;;;;;19.98;8.57;;;;;;;7.70;81.12;100195.28;5044484;28;20465;-83
2023/03/29 08:00:23;;;;;;;18.75;8.88;;;;;;;7.75;80.95;100189.66;4993679;28;20132;-82
2023/03/29 08:03:13;;;;;;;16.50;9.30;;;;;;;7.80;80.97;100187.53;5014475;28;20045;-82
2023/03/29 08:05:42;;;;;;;19.20;8.30;;;;;;;7.84;80.86;100178.44;5016387;28;20072;-82
2023/03/29 08:08:10;;;;;;;23.33;9.43;;;;;;;7.87;80.65;100182.66;5021162;28;20049;-82
2023/03/29 08:10:53;;;;;;;24.40;9.60;;;;;;;7.89;80.75;100183.41;4985489;28;20343;-81
2023/03/29 08:13:29;;;;;;;23.30;9.27;;;;;;;7.87;80.57;100178.22;4993431;28;20042;-81
2023/03/29 08:16:14;;;;;;;25.45;10.05;;;;;;;7.90;80.37;100169.22;5015486;28;20050;-81
2023/03/29 08:18:49;;;;;;;21.90;9.63;;;;;;;7.91;80.81;100171.78;5038860;28;20061;-81
2023/03/29 08:21:18;;;;;;;21.27;10.50;;;;;;;7.95;80.93;100178.50;5010749;28;20068;-81
2023/03/29 08:23:48;;;;;;;23.98;9.25;;;;;;;7.97;80.78;100178.41;4983933;28;20464;-82
2023/03/29 08:26:19;;;;;;;24.17;10.00;;;;;;;8.00;80.23;100170.25;4953215;28;20493;-82
2023/03/29 08:28:48;;;;;;;20.33;9.23;;;;;;;8.02;80.19;100177.13;4999402;28;20401;-82
2023/03/29 08:31:16;;;;;;;21.17;9.50;;;;;;;8.02;79.90;100171.81;4978916;28;20177;-82
2023/03/29 08:33:44;;;;;;;20.65;8.52;;;;;;;8.07;79.99;100178.59;5012617;28;20501;-83
2023/03/29 08:36:43;;;;;;;18.83;8.95;;;;;;;8.09;79.94;100187.22;4986086;28;20490;-82
2023/03/29 08:39:20;;;;;;;21.58;8.95;;;;;;;8.12;80.14;100185.22;5037409;28;20046;-82
2023/03/29 08:42:01;;;;;;;23.52;9.15;;;;;;;8.16;80.38;100188.50;5014997;28;20164;-82
2023/03/29 08:44:56;;;;;;;20.98;9.25;;;;;;;8.13;80.34;100183.41;5005216;28;20485;-83
2023/03/29 08:47:26;;;;;;;25.50;9.60;;;;;;;8.20;80.14;100182.03;4989098;28;20053;-82
2023/03/29 08:49:54;;;;;;;22.25;8.15;;;;;;;8.22;80.07;100180.13;5007578;28;20663;-82
2023/03/29 08:52:30;;;;;;;17.90;9.10;;;;;;;8.24;80.07;100175.53;4959112;28;20406;-82
2023/03/29 08:55:01;;;;;;;17.77;8.33;;;;;;;8.26;79.95;100179.75;5019388;28;20052;-82
2023/03/29 08:58:11;;;;;;;21.52;8.90;;;;;;;8.25;80.20;100175.44;4974084;28;20441;-83
2023/03/29 09:00:43;;;;;;;18.40;7.53;;;;;;;8.27;80.25;100177.97;5023996;28;20521;-82
2023/03/29 09:03:20;;;;;;;30.15;9.70;;;;;;;8.25;80.61;100174.59;4986396;28;20128;-82
2023/03/29 09:05:53;;;;;;;21.67;8.95;;;;;;;8.27;80.23;100170.03;4995588;28;20064;-82
2023/03/29 09:08:24;;;;;;;22.13;9.40;;;;;;;8.30;80.17;100163.69;4962004;28;20442;-82
2023/03/29 09:10:58;;;;;;;19.02;8.80;;;;;;;8.31;80.38;100168.00;5001069;28;20045;-82
2023/03/29 09:13:50;;;;;;;21.67;8.60;;;;;;;8.26;80.91;100171.81;5008436;28;20084;-82
2023/03/29 09:16:42;;;;;;;20.02;9.43;;;;;;;8.28;80.95;100174.38;4988868;28;20049;-82
2023/03/29 09:19:25;;;;;;;21.77;8.75;;;;;;;8.31;80.82;100163.56;5035458;28;20092;-82
2023/03/29 09:22:08;;;;;;;;;;;;;;;8.25;81.53;100158.72;5018449;28;20158;-82
2023/03/29 09:24:56;;;;;;;25.83;9.55;;;;;;;8.34;80.89;100168.59;4980425;28;19928;-82
2023/03/29 09:27:33;;;;;;;15.88;7.50;;;;;;;8.38;80.63;100177.19;5012276;28;20397;-82
2023/03/29 09:30:26;;;;;;;16.15;8.30;;;;;;;8.39;81.16;100173.56;4953314;28;20509;-82
2023/03/29 09:33:11;;;;;;;19.08;7.82;;;;;;;8.41;80.96;100169.03;5012035;28;20077;-83
2023/03/29 09:35:55;;;;;;;19.77;9.00;;;;;;;8.45;80.67;100176.66;5008122;28;20045;-82
2023/03/29 09:38:22;;;;;;;24.40;9.20;;;;;;;8.48;81.31;100171.13;5021997;28;20056;-84
2023/03/29 09:40:52;;;;;;;20.48;9.23;;;;;;;8.54;81.30;100174.28;5000087;28;20455;-82
2023/03/29 09:43:30;;;;;;;24.77;8.70;;;;;;;8.54;80.78;100171.63;5016407;23;20049;-86
2023/03/29 09:46:05;;;;;;;42.50;10.32;;;;;;;8.59;80.97;100175.59;4946950;28;20425;-86
2023/03/29 09:48:36;;;;;;;19.10;8.25;;;;;;;8.63;81.55;100165.66;4972679;28;20046;-86
2023/03/29 09:51:06;;;;;;;15.30;8.23;;;;;;;8.63;80.89;100169.13;5003221;28;20042;-86
2023/03/29 09:53:35;;;;;;;23.05;10.00;;;;;;;8.65;80.86;100161.94;5007436;28;20053;-86
2023/03/29 09:56:15;;;;;;;20.85;8.38;;;;;;;8.68;80.40;100156.41;4983995;28;20128;-86
2023/03/29 09:58:48;;;;;;;32.05;9.02;;;;;;;8.71;80.36;100159.78;4982481;28;20112;-85
2023/03/29 10:01:17;;;;;;;23.00;8.13;;;;;;;8.76;80.25;100152.34;4993224;28;20065;-86
2023/03/29 10:03:51;;;;;;;22.20;8.45;;;;;;;8.84;80.11;100157.88;4990327;28;20471;-86
2023/03/29 10:06:23;;;;;;;24.52;9.38;;;;;;;8.87;79.81;100165.59;4984894;28;20062;-86
2023/03/29 10:08:58;;;;;;;26.52;8.65;;;;;;;8.90;79.74;100160.91;5008477;28;20065;-85
2023/03/29 10:11:36;;;;;;;;;;;;;;;8.84;79.52;100160.53;4987087;28;20039;-86
2023/03/29 10:14:15;;;;;;;24.23;8.23;;;;;;;8.96;79.32;100161.41;4998339;28;20012;-86
2023/03/29 10:16:44;;;;;;;21.63;8.15;;;;;;;8.99;79.11;100148.78;4968938;28;20042;-86
2023/03/29 10:19:18;;;;;;;20.42;8.50;;;;;;;9.04;78.78;100148.41;4997819;28;20583;-85
2023/03/29 10:21:47;;;;;;;21.23;7.68;;;;;;;9.11;78.75;100144.34;4993469;28;20483;-85
2023/03/29 10:24:19;;;;;;;19.73;7.93;;;;;;;9.15;78.64;100137.81;5001883;28;20072;-86
2023/03/29 10:26:46;;;;;;;17.92;8.65;;;;;;;9.23;78.67;100142.53;4980858;28;20129;-86
2023/03/29 10:29:13;;;;;;;18.25;7.47;;;;;;;9.28;78.01;100135.06;4994647;28;20069;-85
2023/03/29 10:31:41;;;;;;;22.13;8.68;;;;;;;9.33;77.80;100128.44;4983722;28;20402;-86
2023/03/29 10:34:11;;;;;;;19.88;7.75;;;;;;;9.35;78.09;100134.47;5001893;28;20049;-86
2023/03/29 10:36:43;;;;;;;19.55;7.30;;;;;;;9.37;77.65;100137.00;5012164;28;20560;-86
2023/03/29 10:39:14;;;;;;;19.60;7.18;;;;;;;9.43;78.15;100135.66;4982590;28;20495;-86
2023/03/29 10:41:41;;;;;;;22.38;6.53;;;;;;;9.50;78.17;100126.28;5003938;28;20068;-86
2023/03/29 10:44:29;;;;;;;19.80;7.22;;;;;;;9.48;78.44;100130.84;4997470;28;20038;-86
2023/03/29 10:47:16;;;;;;;18.55;6.93;;;;;;;9.52;78.17;100125.19;5001309;28;20046;-86
2023/03/29 10:50:04;;;;;;;19.30;6.70;;;;;;;9.62;78.39;100114.69;4996590;28;20089;-86
2023/03/29 10:52:33;;;;;;;19.38;8.20;;;;;;;9.68;77.80;100108.88;4997715;28;20046;-87
2023/03/29 10:55:00;;;;;;;21.35;6.35;;;;;;;9.72;77.43;100113.00;4981553;28;20054;-87
2023/03/29 10:57:46;;;;;;;16.80;6.65;;;;;;;9.72;77.06;100102.38;4985334;28;20044;-86
2023/03/29 11:00:20;;;;;;;19.27;5.32;;;;;;;9.83;77.72;100109.47;5000420;28;20053;-86
2023/03/29 11:03:11;;;;;;;11.70;5.28;;;;;;;9.85;77.43;100106.69;4989066;28;20124;-86
2023/03/29 11:05:53;;;;;;;14.90;5.55;;;;;;;9.90;77.13;100094.75;4955574;28;20060;-86
2023/03/29 11:08:47;;;;;;;28.10;6.40;;;;;;;10.02;77.83;100092.03;5029962;28;20045;-86
2023/03/29 11:11:50;;;;;;;12.40;5.22;;;;;;;10.11;76.27;100100.09;4935834;28;20176;-85
2023/03/29 11:14:30;;;;;;;12.27;4.72;;;;;;;10.17;76.64;100088.13;4922591;28;20038;-86
2023/03/29 11:17:18;;;;;;;23.05;6.07;;;;;;;10.20;75.97;100093.16;5009424;28;20045;-86
2023/03/29 11:20:16;;;;;;;10.15;4.55;;;;;;;10.21;75.48;100085.09;4958700;28;20053;-86
2023/03/29 11:22:52;;;;;;;13.13;5.05;;;;;;;10.25;75.69;100080.34;4946296;28;20387;-86
2023/03/29 11:25:27;;;;;;;14.07;4.97;;;;;;;10.27;74.85;100072.28;4999878;28;20057;-86
2023/03/29 11:28:20;;;;;;;13.02;5.35;;;;;;;10.28;73.96;100081.94;4998210;28;20053;-86
2023/03/29 11:30:55;;;;;;;11.68;4.68;;;;;;;10.30;74.22;100087.97;4962181;28;20050;-86
2023/03/29 11:33:33;;;;;;;13.40;5.22;;;;;;;10.32;73.88;100070.94;4979476;28;20052;-86
2023/03/29 11:36:15;;;;;;;13.90;5.10;;;;;;;10.41;73.51;100079.97;4974225;28;20057;-86
2023/03/29 11:39:10;;;;;;;13.30;4.07;;;;;;;10.43;73.75;100067.41;4961412;28;20507;-86
2023/03/29 11:41:39;;;;;;;12.40;4.45;;;;;;;10.54;73.88;100063.84;4992544;28;20124;-86
2023/03/29 11:44:17;;;;;;;14.63;4.65;;;;;;;10.56;73.24;100053.94;4994366;28;20049;-86
2023/03/29 11:46:57;;;;;;;12.73;4.38;;;;;;;10.62;73.52;100054.25;4989253;28;20056;-86
2023/03/29 11:49:43;;;;;;;15.80;5.43;;;;;;;10.70;72.87;100058.91;4995623;28;20402;-86
2023/03/29 11:52:16;;;;;;;16.17;5.35;;;;;;;10.79;73.42;100055.47;4952287;28;20038;-86
2023/03/29 11:55:02;;;;;;;11.30;4.18;;;;;;;10.80;72.79;100057.16;4961930;28;20310;-86
2023/03/29 11:58:25;;;;;;;9.18;4.50;;;;;;;10.83;71.29;100061.34;4948888;28;21291;-86
2023/03/29 12:01:04;;;;;;;10.52;3.83;;;;;;;10.91;71.45;100048.25;4935194;28;20049;-86
2023/03/29 12:03:47;;;;;;;10.50;4.43;;;;;;;10.94;70.77;100045.34;4977987;28;20141;-86